createdAt,value
2019-01-16T00:00:17.040Z,991.03
2019-01-16T00:01:17.208Z,991.00
2019-01-16T00:02:17.387Z,991.06
2019-01-16T00:03:17.559Z,991.05
2019-01-16T00:04:17.744Z,991.05
2019-01-16T00:05:17.957Z,991.03
2019-01-16T00:06:18.026Z,991.03
2019-01-16T00:07:18.176Z,991.06
2019-01-16T00:08:18.331Z,991.03
2019-01-16T00:09:18.593Z,991.06
2019-01-16T00:10:18.644Z,991.02
2019-01-16T00:11:18.808Z,991.00
2019-01-16T00:12:19.012Z,990.97
2019-01-16T00:13:19.139Z,990.97
2019-01-16T00:14:19.319Z,990.94
2019-01-16T00:15:19.511Z,990.95
2019-01-16T00:16:19.602Z,990.94
2019-01-16T00:17:20.277Z,990.97
2019-01-16T00:18:19.953Z,990.91
2019-01-16T00:19:20.211Z,990.93
2019-01-16T00:20:20.272Z,990.88
2019-01-16T00:21:20.438Z,990.85
2019-01-16T00:22:20.604Z,990.87
2019-01-16T00:23:20.775Z,990.92
2019-01-16T00:24:20.942Z,990.96
2019-01-16T00:25:21.241Z,990.93
2019-01-16T00:26:21.297Z,990.93
2019-01-16T00:27:21.487Z,990.94
2019-01-16T00:28:21.632Z,990.97
2019-01-16T00:29:21.932Z,990.99
2019-01-16T00:30:21.977Z,990.95
2019-01-16T00:31:22.151Z,990.97
2019-01-16T00:32:22.320Z,990.99
2019-01-16T00:33:22.549Z,990.94
2019-01-16T00:34:22.587Z,990.98
2019-01-16T00:35:22.763Z,990.95
2019-01-16T00:36:22.935Z,990.92
2019-01-16T00:37:23.105Z,990.95
2019-01-16T00:38:23.273Z,990.94
2019-01-16T00:39:23.450Z,990.89
2019-01-16T00:40:23.611Z,990.91
2019-01-16T00:41:23.788Z,990.91
2019-01-16T00:42:23.940Z,990.92
2019-01-16T00:43:24.112Z,990.85
2019-01-16T00:44:24.368Z,990.85
2019-01-16T00:45:24.488Z,990.86
2019-01-16T00:46:24.522Z,990.86
2019-01-16T00:47:26.289Z,990.86
2019-01-16T00:48:24.878Z,990.82
2019-01-16T00:49:25.133Z,990.82
2019-01-16T00:50:25.214Z,990.77
2019-01-16T00:51:25.387Z,990.73
2019-01-16T00:52:25.596Z,990.76
2019-01-16T00:53:25.753Z,990.77
2019-01-16T00:54:25.918Z,990.76
2019-01-16T00:55:26.056Z,990.76
2019-01-16T00:56:26.223Z,990.72
2019-01-16T00:57:26.418Z,990.74
2019-01-16T00:58:26.557Z,990.84
2019-01-16T00:59:26.807Z,990.83
2019-01-16T01:00:26.934Z,990.76
2019-01-16T01:01:27.078Z,990.74
2019-01-16T01:02:27.243Z,990.75
2019-01-16T01:03:27.409Z,990.79
2019-01-16T01:04:27.570Z,990.78
2019-01-16T01:05:27.737Z,990.82
2019-01-16T01:06:27.901Z,990.78
2019-01-16T01:07:28.063Z,990.83
2019-01-16T01:08:28.241Z,990.73
2019-01-16T01:09:28.407Z,990.71
2019-01-16T01:10:28.587Z,990.69
2019-01-16T01:11:28.743Z,990.74
2019-01-16T01:12:28.914Z,990.71
2019-01-16T01:13:29.081Z,990.72
2019-01-16T01:14:29.262Z,990.75
2019-01-16T01:15:29.415Z,990.72
2019-01-16T01:16:29.593Z,990.63
2019-01-16T01:17:29.796Z,990.67
2019-01-16T01:18:32.385Z,990.64
2019-01-16T01:19:30.037Z,990.69
2019-01-16T01:20:30.219Z,990.72
2019-01-16T01:21:30.353Z,990.69
2019-01-16T01:22:30.516Z,990.66
2019-01-16T01:23:30.685Z,990.68
2019-01-16T01:24:30.865Z,990.70
2019-01-16T01:25:31.006Z,990.65
2019-01-16T01:26:31.171Z,990.70
2019-01-16T01:27:31.368Z,990.71
2019-01-16T01:28:31.554Z,990.69
2019-01-16T01:29:31.631Z,990.72
2019-01-16T01:30:31.749Z,990.72
2019-01-16T01:31:31.936Z,990.74
2019-01-16T01:32:32.107Z,990.75
2019-01-16T01:33:32.253Z,990.81
2019-01-16T01:34:32.421Z,990.79
2019-01-16T01:35:32.592Z,990.77
2019-01-16T01:36:32.801Z,990.81
2019-01-16T01:37:32.880Z,990.79
2019-01-16T01:38:33.036Z,990.71
2019-01-16T01:39:33.212Z,990.76
2019-01-16T01:40:33.369Z,990.72
2019-01-16T01:41:33.545Z,990.68
2019-01-16T01:42:33.726Z,990.59
2019-01-16T01:43:33.904Z,990.59
2019-01-16T01:44:34.070Z,990.66
2019-01-16T01:45:34.240Z,990.63
2019-01-16T01:46:34.400Z,990.62
2019-01-16T01:47:34.566Z,990.66
2019-01-16T01:48:39.921Z,990.64
2019-01-16T01:49:34.896Z,990.70
2019-01-16T01:50:35.083Z,990.68
2019-01-16T01:51:35.243Z,990.73
2019-01-16T01:52:35.425Z,990.72
2019-01-16T01:53:35.687Z,990.77
2019-01-16T01:54:35.781Z,990.79
2019-01-16T01:55:35.963Z,990.75
2019-01-16T01:56:36.123Z,990.70
2019-01-16T01:57:36.281Z,990.72
2019-01-16T01:58:36.443Z,990.64
2019-01-16T01:59:36.617Z,990.58
2019-01-16T02:00:36.774Z,990.58
2019-01-16T02:01:36.935Z,990.59
2019-01-16T02:02:37.105Z,990.53
2019-01-16T02:03:37.284Z,990.57
2019-01-16T02:04:37.448Z,990.58
2019-01-16T02:05:37.622Z,990.61
2019-01-16T02:06:37.797Z,990.59
2019-01-16T02:07:37.981Z,990.61
2019-01-16T02:08:38.111Z,990.63
2019-01-16T02:09:38.297Z,990.59
2019-01-16T02:10:38.498Z,990.60
2019-01-16T02:11:38.660Z,990.66
2019-01-16T02:12:38.820Z,990.63
2019-01-16T02:13:38.993Z,990.61
2019-01-16T02:14:39.275Z,990.60
2019-01-16T02:15:39.311Z,990.60
2019-01-16T02:16:39.472Z,990.58
2019-01-16T02:17:39.637Z,990.58
2019-01-16T02:18:47.179Z,990.59
2019-01-16T02:19:39.919Z,990.57
2019-01-16T02:20:40.082Z,990.54
2019-01-16T02:21:40.244Z,990.55
2019-01-16T02:22:40.398Z,990.54
2019-01-16T02:23:40.568Z,990.54
2019-01-16T02:24:40.728Z,990.50
2019-01-16T02:25:40.899Z,990.53
2019-01-16T02:26:41.059Z,990.51
2019-01-16T02:27:41.217Z,990.51
2019-01-16T02:28:41.377Z,990.47
2019-01-16T02:29:41.536Z,990.47
2019-01-16T02:30:41.697Z,990.42
2019-01-16T02:31:41.860Z,990.40
2019-01-16T02:32:42.039Z,990.39
2019-01-16T02:33:42.205Z,990.42
2019-01-16T02:34:42.370Z,990.39
2019-01-16T02:35:42.526Z,990.37
2019-01-16T02:36:42.695Z,990.47
2019-01-16T02:37:42.863Z,990.43
2019-01-16T02:38:43.019Z,990.41
2019-01-16T02:39:43.186Z,990.41
2019-01-16T02:40:43.344Z,990.38
2019-01-16T02:41:43.505Z,990.41
2019-01-16T02:42:43.725Z,990.35
2019-01-16T02:43:43.833Z,990.36
2019-01-16T02:44:43.997Z,990.35
2019-01-16T02:45:44.153Z,990.37
2019-01-16T02:46:44.327Z,990.37
2019-01-16T02:47:44.505Z,990.29
2019-01-16T02:48:44.689Z,990.28
2019-01-16T02:49:44.840Z,990.28
2019-01-16T02:50:44.993Z,990.25
2019-01-16T02:51:45.150Z,990.23
2019-01-16T02:52:45.317Z,990.18
2019-01-16T02:53:45.479Z,990.19
2019-01-16T02:54:45.651Z,990.19
2019-01-16T02:55:45.847Z,990.14
2019-01-16T02:56:45.978Z,990.14
2019-01-16T02:57:46.144Z,990.18
2019-01-16T02:58:46.336Z,990.20
2019-01-16T02:59:46.482Z,990.13
2019-01-16T03:00:46.641Z,990.18
2019-01-16T03:01:46.806Z,990.18
2019-01-16T03:02:46.966Z,990.18
2019-01-16T03:03:47.135Z,990.15
2019-01-16T03:04:47.312Z,990.16
2019-01-16T03:05:47.465Z,990.13
2019-01-16T03:06:47.629Z,990.13
2019-01-16T03:07:47.813Z,990.12
2019-01-16T03:08:47.965Z,990.13
2019-01-16T03:09:48.146Z,990.09
2019-01-16T03:10:48.300Z,990.10
2019-01-16T03:11:48.470Z,990.12
2019-01-16T03:12:48.637Z,990.12
2019-01-16T03:13:48.806Z,990.12
2019-01-16T03:14:48.962Z,990.12
2019-01-16T03:15:49.132Z,990.17
2019-01-16T03:16:49.303Z,990.18
2019-01-16T03:17:49.458Z,990.13
2019-01-16T03:18:49.655Z,990.11
2019-01-16T03:19:49.850Z,990.06
2019-01-16T03:20:49.993Z,990.06
2019-01-16T03:21:50.156Z,990.08
2019-01-16T03:22:50.314Z,990.08
2019-01-16T03:23:50.469Z,990.09
2019-01-16T03:24:50.669Z,990.04
2019-01-16T03:25:50.860Z,990.06
2019-01-16T03:26:50.976Z,990.08
2019-01-16T03:27:51.137Z,990.02
2019-01-16T03:28:51.361Z,990.03
2019-01-16T03:29:51.412Z,990.01
2019-01-16T03:30:51.595Z,990.00
2019-01-16T03:31:51.756Z,990.01
2019-01-16T03:32:51.921Z,990.04
2019-01-16T03:33:52.079Z,990.06
2019-01-16T03:34:52.250Z,990.00
2019-01-16T03:35:52.404Z,990.06
2019-01-16T03:36:52.564Z,990.05
2019-01-16T03:37:52.728Z,990.05
2019-01-16T03:38:52.910Z,990.03
2019-01-16T03:39:53.048Z,990.03
2019-01-16T03:40:53.230Z,990.07
2019-01-16T03:41:53.370Z,990.12
2019-01-16T03:42:53.565Z,990.09
2019-01-16T03:43:53.707Z,990.07
2019-01-16T03:44:53.878Z,990.02
2019-01-16T03:45:54.046Z,990.01
2019-01-16T03:46:54.215Z,989.96
2019-01-16T03:47:54.387Z,990.01
2019-01-16T03:48:54.551Z,989.99
2019-01-16T03:49:54.724Z,989.97
2019-01-16T03:50:54.909Z,990.02
2019-01-16T03:51:55.076Z,990.00
2019-01-16T03:52:55.237Z,989.97
2019-01-16T03:53:55.410Z,989.97
2019-01-16T03:54:55.584Z,989.98
2019-01-16T03:55:55.747Z,989.98
2019-01-16T03:56:55.905Z,989.94
2019-01-16T03:57:56.091Z,989.95
2019-01-16T03:58:56.268Z,989.95
2019-01-16T03:59:56.401Z,989.95
2019-01-16T04:00:56.586Z,989.98
2019-01-16T04:01:56.860Z,989.91
2019-01-16T04:02:56.951Z,989.94
2019-01-16T04:03:57.100Z,989.92
2019-01-16T04:04:57.267Z,989.90
2019-01-16T04:05:57.464Z,989.88
2019-01-16T04:06:57.612Z,989.84
2019-01-16T04:07:57.814Z,989.81
2019-01-16T04:08:59.778Z,989.78
2019-01-16T04:09:58.210Z,989.78
2019-01-16T04:10:58.370Z,989.77
2019-01-16T04:11:58.550Z,989.75
2019-01-16T04:12:58.691Z,989.72
2019-01-16T04:13:58.857Z,989.74
2019-01-16T04:14:59.037Z,989.78
2019-01-16T04:15:59.204Z,989.78
2019-01-16T04:16:59.381Z,989.78
2019-01-16T04:17:59.568Z,989.77
2019-01-16T04:18:59.742Z,989.77
2019-01-16T04:19:59.923Z,989.74
2019-01-16T04:21:00.092Z,989.76
2019-01-16T04:22:00.255Z,989.73
2019-01-16T04:23:00.415Z,989.69
2019-01-16T04:24:00.585Z,989.69
2019-01-16T04:25:00.744Z,989.66
2019-01-16T04:26:00.907Z,989.65
2019-01-16T04:27:01.077Z,989.65
2019-01-16T04:28:01.257Z,989.67
2019-01-16T04:29:01.439Z,989.62
2019-01-16T04:30:01.601Z,989.58
2019-01-16T04:31:01.774Z,989.56
2019-01-16T04:32:01.948Z,989.58
2019-01-16T04:33:02.134Z,989.62
2019-01-16T04:34:02.307Z,989.59
2019-01-16T04:35:02.469Z,989.59
2019-01-16T04:36:02.637Z,989.55
2019-01-16T04:37:02.803Z,989.57
2019-01-16T04:38:02.961Z,989.52
2019-01-16T04:39:03.118Z,989.59
2019-01-16T04:40:03.285Z,989.54
2019-01-16T04:41:03.449Z,989.51
2019-01-16T04:42:03.621Z,989.49
2019-01-16T04:43:03.786Z,989.47
2019-01-16T04:44:03.945Z,989.47
2019-01-16T04:45:04.112Z,989.47
2019-01-16T04:46:04.320Z,989.48
2019-01-16T04:47:04.456Z,989.48
2019-01-16T04:48:04.623Z,989.46
2019-01-16T04:49:04.797Z,989.42
2019-01-16T04:50:04.981Z,989.38
2019-01-16T04:51:05.171Z,989.42
2019-01-16T04:52:05.345Z,989.39
2019-01-16T04:53:05.517Z,989.41
2019-01-16T04:54:05.679Z,989.42
2019-01-16T04:55:05.844Z,989.40
2019-01-16T04:56:06.033Z,989.43
2019-01-16T04:57:06.190Z,989.37
2019-01-16T04:58:06.383Z,989.41
2019-01-16T04:59:06.548Z,989.38
2019-01-16T05:00:06.729Z,989.39
2019-01-16T05:01:06.894Z,989.41
2019-01-16T05:02:07.107Z,989.35
2019-01-16T05:03:07.234Z,989.34
2019-01-16T05:04:07.432Z,989.33
2019-01-16T05:05:07.539Z,989.35
2019-01-16T05:06:07.759Z,989.36
2019-01-16T05:07:07.899Z,989.34
2019-01-16T05:08:08.133Z,989.34
2019-01-16T05:09:08.295Z,989.35
2019-01-16T05:10:08.461Z,989.32
2019-01-16T05:11:08.643Z,989.28
2019-01-16T05:12:08.790Z,989.30
2019-01-16T05:13:08.955Z,989.22
2019-01-16T05:14:09.205Z,989.25
2019-01-16T05:15:09.342Z,989.26
2019-01-16T05:16:09.483Z,989.26
2019-01-16T05:17:09.658Z,989.25
2019-01-16T05:18:09.804Z,989.24
2019-01-16T05:19:09.974Z,989.24
2019-01-16T05:20:10.131Z,989.21
2019-01-16T05:21:10.300Z,989.20
2019-01-16T05:22:10.462Z,989.23
2019-01-16T05:23:10.650Z,989.20
2019-01-16T05:24:10.833Z,989.15
2019-01-16T05:25:10.999Z,989.21
2019-01-16T05:26:11.169Z,989.22
2019-01-16T05:27:11.358Z,989.15
2019-01-16T05:28:11.500Z,989.18
2019-01-16T05:29:11.690Z,989.12
2019-01-16T05:30:11.831Z,989.13
2019-01-16T05:31:11.985Z,989.12
2019-01-16T05:32:12.152Z,989.16
2019-01-16T05:33:12.317Z,989.12
2019-01-16T05:34:12.514Z,989.11
2019-01-16T05:35:12.690Z,989.15
2019-01-16T05:36:12.841Z,989.12
2019-01-16T05:37:13.006Z,989.11
2019-01-16T05:38:13.182Z,989.11
2019-01-16T05:39:13.349Z,989.10
2019-01-16T05:40:13.560Z,989.11
2019-01-16T05:41:13.719Z,989.09
2019-01-16T05:42:13.882Z,989.10
2019-01-16T05:43:14.045Z,989.08
2019-01-16T05:44:14.225Z,989.08
2019-01-16T05:45:14.422Z,989.08
2019-01-16T05:46:14.562Z,989.05
2019-01-16T05:47:14.749Z,989.07
2019-01-16T05:48:14.884Z,989.07
2019-01-16T05:49:15.044Z,989.06
2019-01-16T05:50:15.229Z,989.09
2019-01-16T05:51:15.386Z,989.13
2019-01-16T05:52:15.712Z,989.09
2019-01-16T05:53:15.750Z,989.06
2019-01-16T05:54:15.906Z,989.09
2019-01-16T05:55:16.100Z,989.05
2019-01-16T05:56:16.417Z,989.05
2019-01-16T05:57:16.350Z,989.05
2019-01-16T05:58:16.509Z,989.01
2019-01-16T05:59:16.673Z,988.99
2019-01-16T06:00:16.833Z,988.96
2019-01-16T06:01:17.002Z,988.99
2019-01-16T06:02:17.167Z,988.95
2019-01-16T06:03:17.333Z,988.94
2019-01-16T06:04:17.508Z,988.93
2019-01-16T06:05:17.673Z,988.97
2019-01-16T06:06:17.836Z,988.96
2019-01-16T06:07:18.009Z,988.94
2019-01-16T06:08:18.192Z,988.96
2019-01-16T06:09:18.365Z,988.95
2019-01-16T06:10:18.528Z,988.98
2019-01-16T06:11:20.803Z,988.94
2019-01-16T06:12:23.980Z,988.95
2019-01-16T06:13:21.388Z,988.95
2019-01-16T06:14:23.624Z,988.93
2019-01-16T06:15:20.388Z,988.95
2019-01-16T06:16:23.291Z,988.95
2019-01-16T06:17:20.430Z,988.97
2019-01-16T06:18:21.533Z,988.98
2019-01-16T06:19:22.498Z,988.98
2019-01-16T06:20:22.158Z,988.94
2019-01-16T06:21:21.677Z,988.98
2019-01-16T06:22:24.338Z,989.01
2019-01-16T06:23:24.687Z,988.92
2019-01-16T06:24:23.750Z,988.96
2019-01-16T06:25:23.132Z,988.93
2019-01-16T06:26:22.820Z,988.93
2019-01-16T06:27:23.361Z,988.93
2019-01-16T06:28:24.554Z,988.87
2019-01-16T06:29:24.758Z,988.88
2019-01-16T06:30:21.772Z,988.86
2019-01-16T06:31:21.950Z,988.84
2019-01-16T06:32:22.109Z,988.85
2019-01-16T06:33:22.276Z,988.82
2019-01-16T06:34:22.476Z,988.83
2019-01-16T06:35:22.621Z,988.84
2019-01-16T06:36:22.797Z,988.81
2019-01-16T06:37:22.965Z,988.84
2019-01-16T06:38:23.141Z,988.84
2019-01-16T06:39:23.298Z,988.82
2019-01-16T06:40:23.461Z,988.88
2019-01-16T06:41:23.651Z,988.86
2019-01-16T06:42:23.836Z,988.86
2019-01-16T06:43:24.008Z,988.84
2019-01-16T06:44:24.184Z,988.83
2019-01-16T06:45:24.349Z,988.82
2019-01-16T06:46:24.514Z,988.76
2019-01-16T06:47:24.685Z,988.75
2019-01-16T06:48:24.866Z,988.70
2019-01-16T06:49:25.021Z,988.77
2019-01-16T06:50:25.186Z,988.74
2019-01-16T06:51:25.359Z,988.69
2019-01-16T06:52:25.533Z,988.69
2019-01-16T06:53:25.724Z,988.74
2019-01-16T06:54:25.861Z,988.71
2019-01-16T06:55:26.043Z,988.66
2019-01-16T06:56:26.561Z,988.65
2019-01-16T06:57:26.435Z,988.62
2019-01-16T06:58:26.595Z,988.61
2019-01-16T06:59:26.854Z,988.62
2019-01-16T07:00:26.948Z,988.60
2019-01-16T07:01:27.087Z,988.58
2019-01-16T07:02:27.248Z,988.62
2019-01-16T07:03:27.412Z,988.66
2019-01-16T07:04:28.741Z,988.62
2019-01-16T07:05:29.440Z,988.64
2019-01-16T07:06:30.171Z,988.66
2019-01-16T07:07:29.244Z,988.62
2019-01-16T07:08:28.283Z,988.58
2019-01-16T07:09:28.474Z,988.58
2019-01-16T07:10:28.717Z,988.64
2019-01-16T07:11:28.817Z,988.58
2019-01-16T07:12:28.864Z,988.62
2019-01-16T07:13:29.039Z,988.65
2019-01-16T07:14:31.835Z,988.62
2019-01-16T07:15:29.400Z,988.66
2019-01-16T07:16:29.527Z,988.67
2019-01-16T07:17:29.705Z,988.63
2019-01-16T07:18:29.869Z,988.55
2019-01-16T07:19:30.014Z,988.54
2019-01-16T07:20:31.363Z,988.55
2019-01-16T07:21:30.409Z,988.55
2019-01-16T07:22:30.658Z,988.56
2019-01-16T07:23:30.722Z,988.59
2019-01-16T07:24:30.968Z,988.61
2019-01-16T07:25:31.010Z,988.58
2019-01-16T07:26:31.268Z,988.59
2019-01-16T07:27:31.366Z,988.56
2019-01-16T07:28:31.441Z,988.58
2019-01-16T07:29:31.608Z,988.61
2019-01-16T07:30:32.253Z,988.61
2019-01-16T07:31:31.950Z,988.59
2019-01-16T07:32:32.116Z,988.57
2019-01-16T07:33:32.292Z,988.56
2019-01-16T07:34:32.462Z,988.62
2019-01-16T07:35:32.645Z,988.64
2019-01-16T07:36:34.392Z,988.67
2019-01-16T07:37:32.946Z,988.65
2019-01-16T07:38:33.131Z,988.69
2019-01-16T07:39:33.295Z,988.69
2019-01-16T07:40:35.431Z,988.71
2019-01-16T07:41:33.624Z,988.76
2019-01-16T07:42:33.815Z,988.77
2019-01-16T07:43:33.979Z,988.76
2019-01-16T07:44:34.137Z,988.79
2019-01-16T07:45:34.333Z,988.80
2019-01-16T07:46:34.505Z,988.79
2019-01-16T07:47:34.658Z,988.80
2019-01-16T07:48:34.832Z,988.79
2019-01-16T07:49:35.021Z,988.75
2019-01-16T07:50:35.104Z,988.78
2019-01-16T07:51:35.287Z,988.79
2019-01-16T07:52:35.475Z,988.80
2019-01-16T07:53:35.597Z,988.84
2019-01-16T07:54:35.797Z,988.89
2019-01-16T07:55:35.997Z,988.87
2019-01-16T07:56:36.164Z,988.84
2019-01-16T07:57:36.338Z,988.83
2019-01-16T07:58:44.426Z,988.79
2019-01-16T07:59:38.656Z,988.79
2019-01-16T08:00:36.950Z,988.81
2019-01-16T08:01:37.119Z,988.84
2019-01-16T08:02:37.309Z,988.84
2019-01-16T08:03:37.470Z,988.86
2019-01-16T08:04:38.065Z,988.81
2019-01-16T08:05:37.820Z,988.78
2019-01-16T08:06:37.987Z,988.78
2019-01-16T08:07:38.148Z,988.79
2019-01-16T08:08:38.314Z,988.76
2019-01-16T08:09:38.756Z,988.74
2019-01-16T08:10:38.739Z,988.73
2019-01-16T08:11:38.866Z,988.75
2019-01-16T08:12:38.906Z,988.78
2019-01-16T08:13:39.121Z,988.80
2019-01-16T08:14:39.256Z,988.85
2019-01-16T08:15:39.444Z,988.82
2019-01-16T08:16:39.663Z,988.87
2019-01-16T08:17:40.020Z,988.89
2019-01-16T08:18:39.809Z,988.88
2019-01-16T08:19:40.046Z,988.91
2019-01-16T08:20:43.995Z,988.90
2019-01-16T08:21:40.361Z,988.90
2019-01-16T08:22:41.997Z,988.89
2019-01-16T08:23:44.389Z,988.90
2019-01-16T08:24:41.935Z,988.84
2019-01-16T08:25:44.077Z,988.87
2019-01-16T08:26:41.071Z,988.88
2019-01-16T08:27:42.829Z,988.92
2019-01-16T08:28:43.477Z,988.86
2019-01-16T08:29:43.500Z,988.82
2019-01-16T08:30:44.500Z,988.85
2019-01-16T08:31:41.855Z,988.85
2019-01-16T08:32:42.098Z,988.78
2019-01-16T08:33:42.571Z,988.85
2019-01-16T08:34:43.981Z,988.86
2019-01-16T08:35:43.553Z,988.90
2019-01-16T08:36:43.119Z,988.94
2019-01-16T08:37:43.039Z,988.94
2019-01-16T08:38:43.117Z,988.93
2019-01-16T08:39:43.449Z,988.93
2019-01-16T08:40:43.853Z,988.90
2019-01-16T08:41:44.726Z,988.93
2019-01-16T08:42:44.063Z,988.93
2019-01-16T08:43:44.119Z,988.86
2019-01-16T08:44:44.549Z,988.88
2019-01-16T08:45:44.563Z,988.82
2019-01-16T08:46:44.529Z,988.81
2019-01-16T08:47:46.724Z,988.78
2019-01-16T08:48:44.680Z,988.75
2019-01-16T08:49:45.288Z,988.76
2019-01-16T08:50:44.911Z,988.71
2019-01-16T08:51:45.407Z,988.74
2019-01-16T08:52:47.234Z,988.69
2019-01-16T08:53:45.685Z,988.67
2019-01-16T08:54:45.758Z,988.63
2019-01-16T08:55:45.957Z,988.61
2019-01-16T08:56:46.040Z,988.67
2019-01-16T08:57:45.973Z,988.72
2019-01-16T08:58:46.798Z,988.71
2019-01-16T08:59:46.517Z,988.72
2019-01-16T09:00:48.123Z,988.68
2019-01-16T09:01:51.652Z,988.67
2019-01-16T09:02:46.702Z,988.69
2019-01-16T09:03:47.116Z,988.69
2019-01-16T09:04:48.063Z,988.66
2019-01-16T09:05:47.166Z,988.67
2019-01-16T09:06:47.137Z,988.73
2019-01-16T09:07:49.752Z,988.69
2019-01-16T09:08:47.436Z,988.72
2019-01-16T09:09:47.755Z,988.68
2019-01-16T09:10:54.554Z,988.67
2019-01-16T09:11:54.119Z,988.64
2019-01-16T09:12:48.137Z,988.66
2019-01-16T09:13:48.520Z,988.69
2019-01-16T09:14:48.343Z,988.68
2019-01-16T09:15:48.520Z,988.67
2019-01-16T09:16:48.796Z,988.66
2019-01-16T09:17:52.904Z,988.68
2019-01-16T09:18:51.398Z,988.70
2019-01-16T09:19:51.510Z,988.70
2019-01-16T09:20:49.449Z,988.71
2019-01-16T09:21:51.890Z,988.65
2019-01-16T09:22:51.546Z,988.67
2019-01-16T09:23:49.885Z,988.67
2019-01-16T09:24:50.758Z,988.70
2019-01-16T09:25:52.837Z,988.70
2019-01-16T09:26:51.784Z,988.77
2019-01-16T09:27:50.583Z,988.73
2019-01-16T09:28:50.715Z,988.71
2019-01-16T09:29:50.891Z,988.83
2019-01-16T09:30:51.069Z,988.75
2019-01-16T09:31:51.441Z,988.73
2019-01-16T09:32:51.476Z,988.76
2019-01-16T09:34:08.590Z,988.76
2019-01-16T09:34:53.930Z,988.75
2019-01-16T09:35:51.890Z,988.71
2019-01-16T09:36:52.282Z,988.66
2019-01-16T09:39:30.434Z,988.57
2019-01-16T09:40:26.571Z,988.54
2019-01-16T09:41:28.402Z,988.51
2019-01-16T09:42:25.754Z,988.51
2019-01-16T09:43:25.717Z,988.49
2019-01-16T09:44:29.562Z,988.50
2019-01-16T09:45:27.473Z,988.52
2019-01-16T09:46:26.260Z,988.44
2019-01-16T09:47:28.806Z,988.42
2019-01-16T09:48:26.539Z,988.48
2019-01-16T09:49:26.549Z,988.43
2019-01-16T09:50:27.433Z,988.43
2019-01-16T09:51:26.838Z,988.47
2019-01-16T09:52:26.874Z,988.38
2019-01-16T09:53:27.652Z,988.34
2019-01-16T09:54:30.503Z,988.38
2019-01-16T09:55:28.517Z,988.37
2019-01-16T09:56:31.411Z,988.40
2019-01-16T09:57:27.648Z,988.42
2019-01-16T09:58:27.825Z,988.43
2019-01-16T09:59:27.983Z,988.40
2019-01-16T10:00:28.683Z,988.33
2019-01-16T10:01:28.370Z,988.28
2019-01-16T10:02:28.545Z,988.29
2019-01-16T10:03:28.737Z,988.21
2019-01-16T10:04:28.876Z,988.14
2019-01-16T10:05:29.044Z,988.21
2019-01-16T10:06:29.346Z,988.15
2019-01-16T10:07:29.398Z,988.19
2019-01-16T10:08:32.024Z,988.15
2019-01-16T10:09:35.866Z,988.20
2019-01-16T10:10:31.404Z,988.24
2019-01-16T10:11:29.951Z,988.21
2019-01-16T10:12:37.032Z,988.27
2019-01-16T10:13:32.390Z,988.22
2019-01-16T10:14:30.581Z,988.27
2019-01-16T10:15:30.474Z,988.29
2019-01-16T10:16:31.407Z,988.28
2019-01-16T10:17:31.081Z,988.27
2019-01-16T10:18:31.349Z,988.29
2019-01-16T10:19:31.052Z,988.28
2019-01-16T10:20:31.298Z,988.36
2019-01-16T10:21:31.452Z,988.32
2019-01-16T10:22:31.530Z,988.32
2019-01-16T10:23:32.789Z,988.27
2019-01-16T10:24:31.825Z,988.29
2019-01-16T10:25:36.622Z,988.28
2019-01-16T10:26:32.181Z,988.27
2019-01-16T10:27:32.223Z,988.20
2019-01-16T10:28:32.462Z,988.15
2019-01-16T10:29:32.854Z,988.10
2019-01-16T10:30:32.666Z,988.12
2019-01-16T10:31:32.834Z,988.17
2019-01-16T10:32:33.109Z,988.25
2019-01-16T10:33:33.338Z,988.21
2019-01-16T10:34:33.306Z,988.18
2019-01-16T10:35:33.708Z,988.19
2019-01-16T10:36:33.586Z,988.13
2019-01-16T10:37:33.754Z,988.14
2019-01-16T10:38:33.915Z,988.14
2019-01-16T10:39:34.078Z,988.23
2019-01-16T10:40:34.382Z,988.15
2019-01-16T10:41:34.417Z,988.15
2019-01-16T10:42:34.596Z,988.09
2019-01-16T10:43:34.931Z,988.02
2019-01-16T10:44:34.982Z,988.00
2019-01-16T10:45:35.152Z,987.99
2019-01-16T10:46:35.511Z,987.96
2019-01-16T10:47:35.481Z,987.93
2019-01-16T10:48:35.589Z,987.82
2019-01-16T10:49:35.759Z,987.83
2019-01-16T10:50:35.941Z,987.80
2019-01-16T10:51:36.110Z,987.88
2019-01-16T10:52:36.282Z,987.90
2019-01-16T10:53:36.474Z,987.89
2019-01-16T10:54:36.903Z,987.88
2019-01-16T10:55:37.051Z,987.82
2019-01-16T10:56:37.190Z,987.88
2019-01-16T10:57:37.322Z,987.87
2019-01-16T10:58:37.419Z,987.86
2019-01-16T10:59:37.589Z,987.88
2019-01-16T11:00:37.799Z,987.83
2019-01-16T11:01:38.055Z,987.80
2019-01-16T11:02:38.115Z,987.85
2019-01-16T11:03:41.543Z,987.79
2019-01-16T11:04:41.517Z,987.78
2019-01-16T11:05:40.441Z,987.75
2019-01-16T11:06:38.810Z,987.75
2019-01-16T11:07:38.971Z,987.73
2019-01-16T11:08:40.852Z,987.75
2019-01-16T11:09:41.062Z,987.70
2019-01-16T11:10:39.542Z,987.67
2019-01-16T11:11:39.605Z,987.64
2019-01-16T11:12:39.772Z,987.55
2019-01-16T11:13:40.302Z,987.55
2019-01-16T11:14:42.882Z,987.46
2019-01-16T11:15:40.352Z,987.45
2019-01-16T11:16:40.477Z,987.46
2019-01-16T11:17:40.797Z,987.42
2019-01-16T11:18:40.786Z,987.39
2019-01-16T11:19:42.962Z,987.37
2019-01-16T11:20:41.030Z,987.44
2019-01-16T11:21:43.839Z,987.30
2019-01-16T11:22:41.409Z,987.43
2019-01-16T11:23:41.574Z,987.39
2019-01-16T11:24:41.773Z,987.29
2019-01-16T11:25:45.147Z,987.31
2019-01-16T11:26:42.034Z,987.29
2019-01-16T11:27:42.251Z,987.29
2019-01-16T11:28:42.365Z,987.29
2019-01-16T11:29:42.529Z,987.33
2019-01-16T11:30:42.829Z,987.23
2019-01-16T11:31:43.106Z,987.24
2019-01-16T11:32:43.005Z,987.25
2019-01-16T11:33:43.192Z,987.23
2019-01-16T11:34:43.689Z,987.23
2019-01-16T11:35:43.704Z,987.17
2019-01-16T11:36:43.636Z,987.15
2019-01-16T11:37:43.805Z,987.22
2019-01-16T11:38:43.983Z,987.16
2019-01-16T11:39:44.159Z,987.13
2019-01-16T11:40:44.322Z,987.17
2019-01-16T11:41:44.599Z,987.14
2019-01-16T11:42:44.678Z,987.11
2019-01-16T11:43:44.801Z,987.07
2019-01-16T11:44:45.015Z,987.12
2019-01-16T11:45:45.226Z,987.13
2019-01-16T11:46:45.401Z,987.12
2019-01-16T11:47:45.653Z,987.08
2019-01-16T11:48:46.854Z,987.03
2019-01-16T11:49:45.844Z,987.02
2019-01-16T11:50:46.050Z,986.96
2019-01-16T11:51:46.352Z,987.02
2019-01-16T11:52:46.435Z,987.05
2019-01-16T11:53:46.898Z,987.02
2019-01-16T11:54:46.958Z,986.99
2019-01-16T11:55:47.971Z,986.95
2019-01-16T11:56:47.129Z,986.90
2019-01-16T11:57:47.290Z,986.93
2019-01-16T11:58:47.483Z,986.88
2019-01-16T11:59:47.737Z,986.87
2019-01-16T12:00:47.777Z,986.84
2019-01-16T12:01:47.922Z,986.84
2019-01-16T12:02:48.350Z,986.84
2019-01-16T12:03:48.276Z,986.81
2019-01-16T12:04:48.847Z,986.75
2019-01-16T12:05:50.610Z,986.76
2019-01-16T12:06:48.792Z,986.72
2019-01-16T12:07:49.172Z,986.68
2019-01-16T12:08:49.218Z,986.70
2019-01-16T12:09:52.598Z,986.68
2019-01-16T12:10:51.815Z,986.65
2019-01-16T12:12:05.387Z,986.67
2019-01-16T12:12:49.842Z,986.65
2019-01-16T12:13:58.594Z,986.65
2019-01-16T12:15:13.904Z,986.63
2019-01-16T12:15:52.122Z,986.61
2019-01-16T12:16:50.481Z,986.54
2019-01-16T12:17:50.401Z,986.56
2019-01-16T12:18:50.853Z,986.51
2019-01-16T12:19:51.202Z,986.49
2019-01-16T12:20:51.029Z,986.52
2019-01-16T12:21:51.267Z,986.50
2019-01-16T12:22:51.069Z,986.48
2019-01-16T12:23:51.468Z,986.40
2019-01-16T12:24:51.587Z,986.42
2019-01-16T12:25:51.900Z,986.40
2019-01-16T12:26:51.696Z,986.35
2019-01-16T12:27:52.562Z,986.42
2019-01-16T12:28:52.011Z,986.29
2019-01-16T12:29:53.461Z,986.31
2019-01-16T12:30:53.036Z,986.26
2019-01-16T12:31:53.842Z,986.27